createdAt,value
2018-04-17T00:02:13.172Z,101633.63
2018-04-17T00:04:41.767Z,101640.20
2018-04-17T00:07:10.157Z,101636.61
2018-04-17T00:09:38.535Z,101639.05
2018-04-17T00:12:07.010Z,101642.23
2018-04-17T00:14:35.365Z,101637.36
2018-04-17T00:17:04.506Z,101641.61
2018-04-17T00:19:32.893Z,101642.38
2018-04-17T00:22:01.288Z,101643.03
2018-04-17T00:24:29.674Z,101648.41
2018-04-17T00:26:58.066Z,101640.26
2018-04-17T00:29:26.441Z,101637.77
2018-04-17T00:31:54.995Z,101635.61
2018-04-17T00:34:23.434Z,101643.78
2018-04-17T00:36:51.849Z,101644.33
2018-04-17T00:39:20.222Z,101639.77
2018-04-17T00:41:48.610Z,101645.48
2018-04-17T00:44:16.986Z,101647.36
2018-04-17T00:46:46.130Z,101649.56
2018-04-17T00:49:14.531Z,101652.77
2018-04-17T00:51:42.920Z,101650.87
2018-04-17T00:54:11.298Z,101656.59
2018-04-17T00:56:39.695Z,101661.13
2018-04-17T00:59:08.083Z,101658.67
2018-04-17T01:01:36.458Z,101657.59
2018-04-17T01:04:04.834Z,101655.11
2018-04-17T01:06:33.282Z,101656.65
2018-04-17T01:09:01.662Z,101665.53
2018-04-17T01:11:30.042Z,101664.03
2018-04-17T01:13:58.418Z,101668.67
2018-04-17T01:16:26.784Z,101671.50
2018-04-17T01:18:55.933Z,101673.98
2018-04-17T01:21:24.318Z,101675.52
2018-04-17T01:23:52.649Z,101675.88
2018-04-17T01:26:21.031Z,101674.77
2018-04-17T01:28:50.150Z,101679.75
2018-04-17T01:31:18.538Z,101684.89
2018-04-17T01:33:46.907Z,101676.72
2018-04-17T01:36:15.282Z,101689.80
2018-04-17T01:38:44.426Z,101694.01
2018-04-17T01:43:40.142Z,101693.59
2018-04-17T01:46:08.530Z,101692.22
2018-04-17T01:48:36.917Z,101694.91
2018-04-17T01:51:05.305Z,101698.52
2018-04-17T01:53:33.666Z,101702.83
2018-04-17T01:56:02.052Z,101701.41
2018-04-17T01:58:30.442Z,101709.75
2018-04-17T02:00:58.809Z,101709.40
2018-04-17T02:03:27.255Z,101714.83
2018-04-17T02:05:55.632Z,101715.15
2018-04-17T02:08:24.013Z,101710.31
2018-04-17T02:10:52.403Z,101712.74
2018-04-17T02:13:20.785Z,101722.19
2018-04-17T02:15:49.174Z,101715.27
2018-04-17T02:18:17.566Z,101723.55
2018-04-17T02:20:46.710Z,101727.39
2018-04-17T02:23:15.155Z,101733.92
2018-04-17T02:25:44.326Z,101733.52
2018-04-17T02:28:12.690Z,101732.95
2018-04-17T02:30:41.057Z,101734.01
2018-04-17T02:33:09.471Z,101737.76
2018-04-17T02:35:37.841Z,101736.85
2018-04-17T02:38:06.234Z,101745.32
2018-04-17T02:40:34.628Z,101745.61
2018-04-17T02:43:02.998Z,101742.73
2018-04-17T02:45:31.380Z,101748.13
2018-04-17T02:47:59.755Z,101747.48
2018-04-17T02:50:28.137Z,101750.78
2018-04-17T02:52:56.497Z,101750.59
2018-04-17T02:55:24.902Z,101749.83
2018-04-17T02:57:53.271Z,101746.80
2018-04-17T03:00:21.721Z,101746.05
2018-04-17T03:02:50.879Z,101753.91
2018-04-17T03:05:19.233Z,101761.41
2018-04-17T03:07:47.634Z,101753.92
2018-04-17T03:10:16.013Z,101753.11
2018-04-17T03:12:44.390Z,101757.30
2018-04-17T03:15:12.755Z,101751.27
2018-04-17T03:17:41.133Z,101754.21
2018-04-17T03:20:09.595Z,101754.23
2018-04-17T03:22:38.743Z,101747.95
2018-04-17T03:25:07.138Z,101755.59
2018-04-17T03:27:35.520Z,101758.64
2018-04-17T03:30:03.906Z,101760.50
2018-04-17T03:32:32.284Z,101756.60
2018-04-17T03:35:00.674Z,101760.00
2018-04-17T03:37:29.034Z,101754.50
2018-04-17T03:39:57.427Z,101755.23
2018-04-17T03:42:25.820Z,101756.52
2018-04-17T03:44:54.181Z,101757.11
2018-04-17T03:47:22.556Z,101751.07
2018-04-17T03:49:50.938Z,101754.00
2018-04-17T03:52:19.368Z,101753.34
2018-04-17T03:54:47.778Z,101751.61
2018-04-17T03:57:16.932Z,101753.47
2018-04-17T03:59:45.323Z,101751.73
2018-04-17T04:02:13.746Z,101753.91
2018-04-17T04:04:42.915Z,101754.00
2018-04-17T04:07:11.342Z,101755.35
2018-04-17T04:09:39.721Z,101757.55
2018-04-17T04:12:08.088Z,101758.89
2018-04-17T04:14:37.248Z,101764.44
2018-04-17T04:17:23.349Z,101762.28
2018-04-17T04:20:09.689Z,101760.88
2018-04-17T04:22:56.561Z,101771.00
2018-04-17T04:25:52.650Z,101769.90
2018-04-17T04:28:21.206Z,101772.28
2018-04-17T04:30:49.674Z,101769.27
2018-04-17T04:33:18.835Z,101776.93
2018-04-17T04:35:47.218Z,101780.80
2018-04-17T04:38:15.642Z,101788.97
2018-04-17T04:40:44.794Z,101788.09
2018-04-17T04:43:13.178Z,101785.23
2018-04-17T04:45:42.363Z,101792.24
2018-04-17T04:48:10.837Z,101794.66
2018-04-17T04:50:40.070Z,101794.80
2018-04-17T04:53:08.457Z,101796.84
2018-04-17T04:55:36.886Z,101795.87
2018-04-17T04:58:05.291Z,101800.05
2018-04-17T05:00:33.673Z,101809.37
2018-04-17T05:03:02.074Z,101809.00
2018-04-17T05:05:30.529Z,101815.19
2018-04-17T05:07:59.804Z,101812.50
2018-04-17T05:10:29.591Z,101818.33
2018-04-17T05:12:57.998Z,101818.07
2018-04-17T05:15:26.419Z,101821.70
2018-04-17T05:17:54.831Z,101827.03
2018-04-17T05:20:23.290Z,101834.69
2018-04-17T05:22:51.667Z,101836.36
2018-04-17T05:25:20.053Z,101844.90
2018-04-17T05:27:48.437Z,101854.66
2018-04-17T05:30:16.850Z,101854.92
2018-04-17T05:32:45.254Z,101852.12
2018-04-17T05:35:13.677Z,101856.33
2018-04-17T05:37:42.075Z,101863.30
2018-04-17T05:40:10.511Z,101871.34
2018-04-17T05:42:38.878Z,101874.97
2018-04-17T05:45:07.326Z,101887.55
2018-04-17T05:47:35.774Z,101896.24
2018-04-17T05:50:04.952Z,101905.45
2018-04-17T05:52:33.337Z,101906.67
2018-04-17T05:55:01.811Z,101912.81
2018-04-17T05:57:30.214Z,101917.30
2018-04-17T05:59:58.640Z,101915.45
2018-04-17T06:02:27.046Z,101920.47
2018-04-17T06:04:55.442Z,101921.78
2018-04-17T06:07:24.585Z,101927.33
2018-04-17T06:09:53.751Z,101925.07
2018-04-17T06:12:22.138Z,101925.32
2018-04-17T06:14:50.561Z,101927.83
2018-04-17T06:17:18.938Z,101935.31
2018-04-17T06:19:47.382Z,101930.60
2018-04-17T06:22:15.777Z,101934.77
2018-04-17T06:24:44.176Z,101927.95
2018-04-17T06:27:13.317Z,101935.89
2018-04-17T06:29:41.719Z,101940.83
2018-04-17T06:32:10.117Z,101939.11
2018-04-17T06:34:38.509Z,101936.87
2018-04-17T06:37:06.873Z,101939.64
2018-04-17T06:39:35.336Z,101936.91
2018-04-17T06:42:03.819Z,101937.74
2018-04-17T06:44:32.174Z,101935.03
2018-04-17T06:47:01.321Z,101936.34
2018-04-17T06:49:29.705Z,101939.59
2018-04-17T06:51:58.109Z,101940.67
2018-04-17T06:54:26.498Z,101937.74
2018-04-17T06:56:54.894Z,101942.89
2018-04-17T06:59:24.081Z,101947.95
2018-04-17T07:01:52.494Z,101942.64
2018-04-17T07:04:21.683Z,101943.53
2018-04-17T07:06:50.855Z,101943.21
2018-04-17T07:09:19.253Z,101950.66
2018-04-17T07:11:47.685Z,101950.67
2018-04-17T07:14:16.112Z,101951.95
2018-04-17T07:16:44.490Z,101951.45
2018-04-17T07:19:12.902Z,101955.06
2018-04-17T07:21:42.059Z,101959.80
2018-04-17T07:24:10.469Z,101957.41
2018-04-17T07:26:38.897Z,101964.22
2018-04-17T07:29:07.305Z,101962.88
2018-04-17T07:31:35.740Z,101961.03
2018-04-17T07:34:04.924Z,101961.16
2018-04-17T07:36:33.311Z,101960.94
2018-04-17T07:39:01.721Z,101968.47
2018-04-17T07:41:30.102Z,101972.79
2018-04-17T07:43:58.519Z,101967.59
2018-04-17T07:46:26.909Z,101964.38
2018-04-17T07:48:55.306Z,101973.30
2018-04-17T07:51:23.706Z,101976.88
2018-04-17T07:53:52.109Z,101979.42
2018-04-17T07:56:21.294Z,101981.44
2018-04-17T07:58:49.729Z,101975.64
2018-04-17T08:01:18.153Z,101977.00
2018-04-17T08:03:46.561Z,101976.03
2018-04-17T08:06:15.722Z,101988.48
2018-04-17T08:08:44.126Z,101996.11
2018-04-17T08:11:12.511Z,101990.70
2018-04-17T08:13:40.878Z,101990.48
2018-04-17T08:16:09.291Z,101984.62
2018-04-17T08:18:38.446Z,101995.98
2018-04-17T08:21:06.830Z,102007.52
2018-04-17T08:23:35.200Z,102008.27
2018-04-17T08:26:03.636Z,102005.12
2018-04-17T08:28:32.011Z,102011.94
2018-04-17T08:31:00.419Z,102004.27
2018-04-17T08:33:29.582Z,102002.27
2018-04-17T08:35:57.978Z,101996.20
2018-04-17T08:38:26.380Z,101994.64
2018-04-17T08:40:55.531Z,102000.27
2018-04-17T08:43:23.930Z,102012.25
2018-04-17T08:45:52.313Z,102004.94
2018-04-17T08:48:20.712Z,101999.53
2018-04-17T08:50:49.104Z,102004.22
2018-04-17T08:53:17.576Z,102004.68
2018-04-17T08:55:45.981Z,101999.78
2018-04-17T08:58:15.135Z,101987.81
2018-04-17T09:00:43.555Z,101983.74
2018-04-17T09:03:11.935Z,101984.41
2018-04-17T09:05:40.318Z,101979.44
2018-04-17T09:08:08.737Z,101979.64
2018-04-17T09:10:38.936Z,101972.69
2018-04-17T09:13:07.382Z,101978.80
2018-04-17T09:15:35.788Z,101975.98
2018-04-17T09:18:04.188Z,101985.42
2018-04-17T09:20:33.345Z,101980.34
2018-04-17T09:23:02.533Z,101983.39
2018-04-17T09:25:30.961Z,101985.83
2018-04-17T09:27:59.379Z,101987.75
2018-04-17T09:30:27.797Z,101976.53
2018-04-17T09:32:56.229Z,101978.02
2018-04-17T09:35:25.852Z,101977.28
2018-04-17T09:37:54.268Z,101979.74
2018-04-17T09:40:22.674Z,101982.17
2018-04-17T09:42:51.085Z,101984.13
2018-04-17T09:45:20.290Z,101982.66
2018-04-17T09:47:48.699Z,101984.41
2018-04-17T09:50:17.082Z,101978.35
2018-04-17T09:52:49.707Z,101977.23
2018-04-17T09:55:18.107Z,101974.18
2018-04-17T09:57:46.517Z,101973.52
2018-04-17T10:00:15.686Z,101984.31
2018-04-17T10:02:44.113Z,101968.17
2018-04-17T10:05:12.521Z,101972.58
2018-04-17T10:07:41.034Z,101966.84
2018-04-17T10:10:09.486Z,101972.08
2018-04-17T10:12:37.949Z,101973.29
2018-04-17T10:15:07.397Z,101976.63
2018-04-17T10:17:36.541Z,101971.86
2018-04-17T10:20:11.323Z,101964.77
2018-04-17T10:22:39.790Z,101966.59
2018-04-17T10:25:08.197Z,101961.75
2018-04-17T10:27:36.593Z,101963.95
2018-04-17T10:30:04.969Z,101959.11
2018-04-17T10:32:35.393Z,101961.98
2018-04-17T10:35:03.785Z,101958.05
2018-04-17T10:37:32.225Z,101959.76
2018-04-17T10:40:00.635Z,101955.27
2018-04-17T10:42:29.022Z,101951.39
2018-04-17T10:44:57.409Z,101948.95
2018-04-17T10:47:25.876Z,101950.74
2018-04-17T10:49:54.272Z,101952.55
2018-04-17T10:52:22.659Z,101944.34
2018-04-17T10:54:51.107Z,101939.75
2018-04-17T10:57:19.485Z,101936.91
2018-04-17T10:59:47.943Z,101933.16
2018-04-17T11:02:16.249Z,101938.16
2018-04-17T11:04:44.775Z,101940.66
2018-04-17T11:07:13.145Z,101935.95
2018-04-17T11:09:41.535Z,101941.15
2018-04-17T11:12:09.941Z,101925.94
2018-04-17T11:14:38.333Z,101925.05
2018-04-17T11:17:06.745Z,101921.39
2018-04-17T11:19:35.902Z,101927.56
2018-04-17T11:22:04.281Z,101924.31
2018-04-17T11:24:32.675Z,101934.48
2018-04-17T11:27:01.071Z,101924.11
2018-04-17T11:29:29.463Z,101917.81
2018-04-17T11:31:57.866Z,101914.44
2018-04-17T11:34:27.101Z,101907.08
2018-04-17T11:36:56.228Z,101911.52
2018-04-17T11:39:24.607Z,101925.61
2018-04-17T11:41:53.031Z,101931.47
2018-04-17T11:44:22.222Z,101929.86
2018-04-17T11:46:51.383Z,101931.70
2018-04-17T11:49:19.790Z,101944.23
2018-04-17T11:51:48.248Z,101947.66
2018-04-17T11:54:16.641Z,101937.72
2018-04-17T11:56:45.024Z,101935.82
2018-04-17T11:59:13.412Z,101932.81
2018-04-17T12:01:42.563Z,101935.97
2018-04-17T12:04:10.955Z,101932.48
2018-04-17T12:06:39.485Z,101919.04
2018-04-17T12:09:09.368Z,101914.38
2018-04-17T12:11:37.750Z,101922.80
2018-04-17T12:14:06.150Z,101913.27
2018-04-17T12:16:35.310Z,101912.17
2018-04-17T12:19:04.461Z,101914.66
2018-04-17T12:21:32.871Z,101919.15
2018-04-17T12:24:01.274Z,101916.20
2018-04-17T12:26:30.441Z,101918.23
2018-04-17T12:28:58.846Z,101915.07
2018-04-17T12:31:28.081Z,101921.68
2018-04-17T12:33:56.465Z,101918.25
2018-04-17T12:36:24.914Z,101916.98
2018-04-17T12:38:54.086Z,101917.47
2018-04-17T12:41:22.484Z,101914.63
2018-04-17T12:43:50.861Z,101913.94
2018-04-17T12:46:19.249Z,101912.88
2018-04-17T12:48:47.686Z,101905.61
2018-04-17T12:51:16.078Z,101911.41
2018-04-17T12:53:44.472Z,101890.89
2018-04-17T12:56:12.880Z,101894.70
2018-04-17T12:58:41.441Z,101884.21
2018-04-17T13:01:09.837Z,101885.34
2018-04-17T13:03:38.231Z,101893.47
2018-04-17T13:06:06.611Z,101895.07
2018-04-17T13:08:35.100Z,101895.67
2018-04-17T13:11:03.526Z,101902.77
2018-04-17T13:13:32.663Z,101903.93
2018-04-17T13:16:01.057Z,101902.89
2018-04-17T13:18:29.457Z,101902.02
2018-04-17T13:20:57.896Z,101906.45
2018-04-17T13:23:26.287Z,101901.27
2018-04-17T13:25:54.713Z,101897.20
2018-04-17T13:28:23.094Z,101893.53
2018-04-17T13:30:51.498Z,101895.84
2018-04-17T13:33:20.690Z,101890.80
2018-04-17T13:35:49.877Z,101895.26
2018-04-17T13:38:18.278Z,101889.69
2018-04-17T13:40:47.426Z,101894.48
2018-04-17T13:43:15.937Z,101900.36
2018-04-17T13:45:44.329Z,101895.70
2018-04-17T13:48:12.713Z,101888.21
2018-04-17T13:50:41.123Z,101885.27
2018-04-17T13:53:10.275Z,101880.23
2018-04-17T13:55:38.728Z,101876.86
2018-04-17T13:58:07.119Z,101875.66
2018-04-17T14:00:35.606Z,101868.35
2018-04-17T14:03:03.994Z,101861.93
2018-04-17T14:05:32.423Z,101860.02
2018-04-17T14:08:00.855Z,101868.33
2018-04-17T14:10:29.267Z,101865.70
2018-04-17T14:12:57.746Z,101859.63
2018-04-17T14:15:26.128Z,101861.77
2018-04-17T14:17:54.517Z,101866.44
2018-04-17T14:20:22.940Z,101858.34
2018-04-17T14:22:51.369Z,101855.45
2018-04-17T14:25:19.771Z,101863.98
2018-04-17T14:27:48.200Z,101856.87
2018-04-17T14:30:17.354Z,101865.84
2018-04-17T14:32:45.770Z,101872.37
2018-04-17T14:35:14.182Z,101873.98
2018-04-17T14:37:43.432Z,101868.55
2018-04-17T14:40:11.834Z,101869.91
2018-04-17T14:42:40.253Z,101866.83
2018-04-17T14:45:08.666Z,101873.41
2018-04-17T14:47:37.082Z,101875.09
2018-04-17T14:50:05.495Z,101876.26
2018-04-17T14:52:34.674Z,101877.55
2018-04-17T14:55:03.262Z,101878.72
2018-04-17T14:57:31.646Z,101879.14
2018-04-17T15:00:00.071Z,101876.81
2018-04-17T15:02:28.463Z,101878.67
2018-04-17T15:04:56.859Z,101878.00
2018-04-17T15:07:25.264Z,101877.95
2018-04-17T15:09:53.662Z,101872.44
2018-04-17T15:12:22.061Z,101875.43
2018-04-17T15:14:51.201Z,101883.75
2018-04-17T15:17:19.578Z,101881.06
2018-04-17T15:19:47.991Z,101875.30
2018-04-17T15:22:16.373Z,101878.64
2018-04-17T15:24:44.754Z,101877.31
2018-04-17T15:27:13.157Z,101882.77
2018-04-17T15:29:41.556Z,101877.53
2018-04-17T15:32:10.730Z,101872.41
2018-04-17T15:34:39.117Z,101878.08
2018-04-17T15:37:07.511Z,101875.68
2018-04-17T15:39:35.944Z,101881.20
2018-04-17T15:42:04.374Z,101886.19
2018-04-17T15:44:32.785Z,101879.08
2018-04-17T15:47:01.946Z,101889.14
2018-04-17T15:49:30.353Z,101887.67
2018-04-17T15:51:58.733Z,101891.08
2018-04-17T15:54:27.133Z,101881.90
2018-04-17T15:56:56.283Z,101883.11
2018-04-17T15:59:24.712Z,101883.44
2018-04-17T16:01:53.863Z,101886.53
2018-04-17T16:04:22.250Z,101887.30
2018-04-17T16:06:50.678Z,101889.23
2018-04-17T16:09:19.098Z,101888.06
2018-04-17T16:11:47.505Z,101894.20
2018-04-17T16:14:15.885Z,101888.77
2018-04-17T16:16:44.257Z,101890.92
2018-04-17T16:19:12.675Z,101891.45
2018-04-17T16:21:41.119Z,101888.05
2018-04-17T16:24:09.517Z,101891.79
2018-04-17T16:26:37.890Z,101895.69
2018-04-17T16:29:06.279Z,101899.80
2018-04-17T16:31:34.666Z,101893.11
2018-04-17T16:34:03.089Z,101890.92
2018-04-17T16:36:31.473Z,101889.42
2018-04-17T16:38:59.870Z,101888.42
2018-04-17T16:41:29.092Z,101896.40
2018-04-17T16:43:57.482Z,101887.17
2018-04-17T16:46:25.913Z,101888.67
2018-04-17T16:48:55.054Z,101893.69
2018-04-17T16:51:23.552Z,101890.27
2018-04-17T16:53:51.949Z,101894.63
2018-04-17T16:56:20.371Z,101895.29
2018-04-17T16:58:48.812Z,101900.08
2018-04-17T17:01:17.226Z,101894.66
2018-04-17T17:03:46.383Z,101899.46
2018-04-17T17:06:14.814Z,101901.42
2018-04-17T17:08:43.240Z,101901.52
2018-04-17T17:11:12.413Z,101905.91
2018-04-17T17:13:40.805Z,101913.94
2018-04-17T17:16:09.197Z,101919.31
2018-04-17T17:18:37.920Z,101912.30
2018-04-17T17:21:06.314Z,101915.77
2018-04-17T17:23:34.701Z,101920.94
2018-04-17T17:26:03.118Z,101928.10
2018-04-17T17:28:31.507Z,101936.52
2018-04-17T17:30:59.904Z,101933.45
2018-04-17T17:33:29.102Z,101934.38
2018-04-17T17:35:58.257Z,101929.22
2018-04-17T17:38:26.647Z,101927.88
2018-04-17T17:40:55.041Z,101943.20
2018-04-17T17:43:24.212Z,101942.59
2018-04-17T17:45:52.590Z,101941.09
2018-04-17T17:48:21.001Z,101941.12
2018-04-17T17:50:49.406Z,101948.36
2018-04-17T17:53:17.815Z,101945.40
2018-04-17T17:55:46.970Z,101947.45
2018-04-17T17:58:15.391Z,101946.34
2018-04-17T18:00:43.799Z,101949.92
2018-04-17T18:03:12.190Z,101957.12
2018-04-17T18:05:40.572Z,101958.63
2018-04-17T18:08:08.972Z,101957.03
2018-04-17T18:10:37.366Z,101957.60
2018-04-17T18:13:05.763Z,101966.52
2018-04-17T18:15:34.169Z,101978.87
2018-04-17T18:18:02.690Z,101980.77
2018-04-17T18:20:31.078Z,101983.08
2018-04-17T18:22:59.667Z,101985.34
2018-04-17T18:25:28.073Z,101986.20
2018-04-17T18:27:56.489Z,101994.59
2018-04-17T18:30:24.893Z,101995.87
2018-04-17T18:32:54.074Z,101996.75
2018-04-17T18:35:22.475Z,101991.86
2018-04-17T18:37:51.634Z,102004.96
2018-04-17T18:40:20.053Z,102004.88
2018-04-17T18:42:48.470Z,102001.72
2018-04-17T18:45:16.961Z,102006.89
2018-04-17T18:47:45.452Z,102012.50
2018-04-17T18:50:13.873Z,102018.50
2018-04-17T18:52:42.305Z,102017.52
2018-04-17T18:55:11.779Z,102023.09
2018-04-17T18:57:40.173Z,102026.06
2018-04-17T19:00:09.370Z,102029.50
2018-04-17T19:02:37.877Z,102034.61
2018-04-17T19:05:06.294Z,102039.38
2018-04-17T19:07:34.699Z,102040.10
2018-04-17T19:10:03.135Z,102041.22
2018-04-17T19:12:31.563Z,102048.13
2018-04-17T19:15:00.089Z,102055.47
2018-04-17T19:17:29.286Z,102052.28
2018-04-17T19:19:58.590Z,102053.92
2018-04-17T19:22:27.763Z,102059.02
2018-04-17T19:24:56.143Z,102068.49
2018-04-17T19:27:24.582Z,102068.38
2018-04-17T19:29:52.989Z,102069.52
2018-04-17T19:32:21.399Z,102078.52
2018-04-17T19:34:49.881Z,102078.69
2018-04-17T19:37:18.264Z,102082.44
2018-04-17T19:39:46.674Z,102087.95
2018-04-17T19:42:15.852Z,102093.92
2018-04-17T19:44:44.243Z,102094.80
2018-04-17T19:47:12.691Z,102096.91
2018-04-17T19:49:41.260Z,102099.15
2018-04-17T19:52:09.750Z,102097.08
2018-04-17T19:54:38.132Z,102099.27
2018-04-17T19:57:06.665Z,102109.14
2018-04-17T19:59:35.063Z,102108.58
2018-04-17T20:02:04.232Z,102109.02
2018-04-17T20:04:32.650Z,102112.28
2018-04-17T20:07:01.817Z,102118.30
2018-04-17T20:09:30.209Z,102122.73
2018-04-17T20:11:58.630Z,102117.23
2018-04-17T20:14:27.836Z,102121.86
2018-04-17T20:16:56.263Z,102124.67
2018-04-17T20:19:24.682Z,102125.41
2018-04-17T20:21:53.104Z,102127.75
2018-04-17T20:24:22.247Z,102129.94
2018-04-17T20:26:50.665Z,102130.20
2018-04-17T20:29:19.875Z,102130.05
2018-04-17T20:31:48.266Z,102132.89
2018-04-17T20:34:16.663Z,102132.98
2018-04-17T20:36:45.043Z,102129.80
2018-04-17T20:39:13.483Z,102129.98
2018-04-17T20:41:41.879Z,102132.54
2018-04-17T20:44:11.066Z,102127.69
2018-04-17T20:46:39.473Z,102133.20
2018-04-17T20:49:07.923Z,102133.19
2018-04-17T20:51:36.324Z,102132.62
2018-04-17T20:54:05.486Z,102134.00
2018-04-17T20:56:33.908Z,102135.80
2018-04-17T20:59:03.056Z,102134.04
2018-04-17T21:01:31.455Z,102135.27
2018-04-17T21:03:59.861Z,102134.74
2018-04-17T21:06:28.294Z,102135.71
2018-04-17T21:08:56.743Z,102142.81
2018-04-17T21:11:25.202Z,102139.45
2018-04-17T21:13:53.640Z,102141.58
2018-04-17T21:16:22.061Z,102145.27
2018-04-17T21:18:50.500Z,102150.06
2018-04-17T21:21:19.664Z,102152.33
2018-04-17T21:23:48.130Z,102152.86
2018-04-17T21:26:17.285Z,102159.69
2018-04-17T21:28:45.746Z,102160.83
2018-04-17T21:31:14.158Z,102167.98
2018-04-17T21:33:42.590Z,102165.52
2018-04-17T21:36:11.786Z,102164.92
2018-04-17T21:38:40.181Z,102171.93
2018-04-17T21:41:09.621Z,102170.85
2018-04-17T21:43:38.775Z,102173.26
2018-04-17T21:46:07.248Z,102181.49
2018-04-17T21:48:35.679Z,102182.91
2018-04-17T21:51:04.095Z,102188.34
2018-04-17T21:53:32.512Z,102193.77
2018-04-17T21:56:00.916Z,102200.95
2018-04-17T21:58:29.305Z,102198.86
2018-04-17T22:00:57.721Z,102211.11
2018-04-17T22:03:26.194Z,102210.27
2018-04-17T22:05:55.363Z,102205.27
2018-04-17T22:08:23.776Z,102216.80
2018-04-17T22:10:52.990Z,102218.16
2018-04-17T22:13:22.149Z,102219.08
2018-04-17T22:15:50.537Z,102221.69
2018-04-17T22:18:18.942Z,102222.65
2018-04-17T22:20:48.117Z,102227.95
2018-04-17T22:23:16.505Z,102230.66
2018-04-17T22:25:44.914Z,102236.84
2018-04-17T22:28:14.102Z,102231.38
2018-04-17T22:30:42.527Z,102237.72
2018-04-17T22:33:10.902Z,102240.53
2018-04-17T22:35:39.316Z,102240.29
2018-04-17T22:38:07.727Z,102242.34
2018-04-17T22:40:36.111Z,102250.52
2018-04-17T22:43:04.500Z,102246.69
2018-04-17T22:45:33.356Z,102245.61
2018-04-17T22:48:01.781Z,102252.94
2018-04-17T22:50:30.170Z,102256.03
2018-04-17T22:52:59.369Z,102255.54
2018-04-17T22:55:28.694Z,102250.55
2018-04-17T22:57:57.104Z,102257.65
2018-04-17T23:00:26.243Z,102259.86
2018-04-17T23:02:54.649Z,102260.20
2018-04-17T23:05:23.803Z,102254.56
2018-04-17T23:07:52.321Z,102267.45
2018-04-17T23:10:21.525Z,102267.18
2018-04-17T23:12:50.682Z,102262.48
2018-04-17T23:15:19.256Z,102262.55
2018-04-17T23:17:47.722Z,102263.45
2018-04-17T23:20:16.106Z,102264.49
2018-04-17T23:22:44.498Z,102268.77
2018-04-17T23:25:12.904Z,102270.05
2018-04-17T23:27:41.290Z,102270.51
2018-04-17T23:30:09.714Z,102275.01
2018-04-17T23:32:38.903Z,102277.84
2018-04-17T23:35:07.379Z,102274.23
2018-04-17T23:37:35.773Z,102279.36
2018-04-17T23:40:04.182Z,102277.16
2018-04-17T23:42:33.338Z,102280.84
2018-04-17T23:45:01.756Z,102282.47
2018-04-17T23:47:30.910Z,102282.05
2018-04-17T23:49:59.289Z,102281.43
2018-04-17T23:52:27.722Z,102284.25
2018-04-17T23:54:56.872Z,102286.50
2018-04-17T23:57:25.273Z,102288.19
2018-04-17T23:59:53.673Z,102285.55
